Walter J Mccarthy Jr — WXU3434 — position and weather

sailwx.info

Track history (hours):
 
Tides and Currents Weather Stations Pressure Air Temp Water Temp Dewpoint Dewpoint Depression Visibility Wind Speed Wind Dir Waves Ship Positions

Walter J Mccarthy Jr

Owner: ARMSTRONG STEAMSHIP CO, WILLIAMSVILLE, NY. More information available from US FCC via Universal Licensing System and Coast Guard Vessel Documentation Center.

Last reported at 2018-Jul-14 15:00 UTC. Time now 2018-Jul-17 05:20 UTC.
Position N 45°18' W 083°06'.

Length 304 m; draft 8.5 m.

Type: Cargo ship. MMSI: 366906610.

Wind from 240 at 6 knots

Barometer 1019.6 mb
Air temperature 20.5 ° C
Visibility: greater than 1.1 NM

Date/timePositionNaut miles runAvg speedWind from/ knotsBaromVisibWave heightAir tempDewpointWater temp
2018-Jul-14 15:00N 45°18' W 083°06'   240 / 61019.6 1.1 20.5
2018-Jul-11 03:00N 47°18' W 086°42'124 8.8 230 / 61022.6 5.4 8.3 3.8
2018-Jul-10 12:57N 46°15' W 084°06'4 8.3
2018-Jul-10 12:30N 46°11' W 084°06'510.9
2018-Jul-10 12:00N 46°08' W 084°01'5 9.8
2018-Jul-10 11:30N 46°03' W 083°58'5 9.6
2018-Jul-10 11:00N 45°59' W 083°53'612.2
2018-Jul-10 10:30N 45°54' W 083°52'612.4
2018-Jul-10 10:00N 45°49' W 083°47'612.6
2018-Jul-10 09:30N 45°44' W 083°40'612.7
2018-Jul-10 09:00N 45°40' W 083°33'612.4
2018-Jul-10 08:30N 45°36' W 083°27'612.2
2018-Jul-10 08:00N 45°32' W 083°20'912.3
2018-Jul-10 07:17N 45°26' W 083°11'612.6
2018-Jul-10 06:47N 45°22' W 083°04'1712.7
2018-Jul-10 05:28N 45°11' W 082°46'612.6
2018-Jul-10 05:00N 45°07' W 082°40'612.6
2018-Jul-10 04:30N 45°03' W 082°33'612.5
2018-Jul-10 04:00N 44°59' W 082°27'1212.1
2018-Jul-10 03:00N 44°48' W 082°18'43 1.2 280 / 121018.2 18.8 16.1
2018-Jul-08 14:00N 44°06' W 082°30'8112.0 200 / 61027.410.8 16.1 14.4
2018-Jul-08 07:14N 45°22' W 083°08'312.1
2018-Jul-08 06:57N 45°25' W 083°12'712.3
2018-Jul-08 06:22N 45°30' W 083°18'712.3
2018-Jul-08 05:46N 45°36' W 083°26'512.0
2018-Jul-08 05:22N 45°39' W 083°30'411.9
2018-Jul-08 05:00N 45°42' W 083°34'611.8
2018-Jul-08 04:28N 45°47' W 083°41'1312.1
2018-Jul-08 03:24N 45°56' W 083°53'11 9.7
2018-Jul-08 02:18N 46°06' W 084°01'9 8.6
2018-Jul-08 01:14N 46°13' W 084°09'2 6.5
2018-Jul-08 01:00N 46°14' W 084°11'75 7.4
2018-Jul-07 15:00N 47°00' W 085°36'24211.6 240 / 101026.010.8 22.7 4.4
2018-Jul-06 18:12N 47°02' W 091°30'212.3
2018-Jul-06 18:00N 47°01' W 091°34'5 8.8
2018-Jul-06 17:29N 47°01' W 091°40'0 0.0
2018-Jul-06 09:43N 47°01' W 091°40'0 0.0
2018-Jul-06 09:30N 47°01' W 091°40'0 0.0
2018-Jul-06 09:00N 47°01' W 091°40'0 0.0
2018-Jul-06 08:28N 47°01' W 091°40'0 0.0
2018-Jul-06 02:32N 47°01' W 091°40'0 0.6
2018-Jul-06 02:30N 47°01' W 091°40'2 3.0
2018-Jul-06 01:59N 46°59' W 091°41'612.1
2018-Jul-06 01:31N 46°55' W 091°47'612.6
2018-Jul-06 01:00N 46°51' W 091°54'612.6
2018-Jul-06 00:30N 46°48' W 092°01'1 2.6
2018-Jul-06 00:00N 46°47' W 092°02'0 0.0
2018-Jul-05 23:30N 46°47' W 092°02'0 0.0
2018-Jul-05 23:00N 46°47' W 092°02'0 0.0
2018-Jul-05 22:30N 46°47' W 092°02'0 0.0
2018-Jul-05 22:01N 46°47' W 092°02'0 0.1
2018-Jul-05 21:30N 46°47' W 092°02'0 0.1
2018-Jul-05 21:00N 46°47' W 092°02'0 0.1
2018-Jul-05 20:30N 46°47' W 092°02'0 0.0
2018-Jul-05 20:00N 46°47' W 092°02'0 0.0
2018-Jul-05 19:29N 46°47' W 092°02'0 0.0
2018-Jul-05 19:00N 46°47' W 092°02'0 0.0
2018-Jul-05 18:30N 46°47' W 092°02'0 0.1
2018-Jul-05 18:00N 46°47' W 092°02'0 0.1
2018-Jul-05 17:30N 46°47' W 092°02'0 0.2
2018-Jul-05 17:00N 46°47' W 092°02'0 0.2
2018-Jul-05 16:30N 46°47' W 092°02'3 6.9
2018-Jul-05 16:00N 46°49' W 091°58'612.8
2018-Jul-05 15:30N 46°53' W 091°51'613.0
2018-Jul-05 15:00N 46°56' W 091°43'  
Track history (hours):
 
Tides and Currents Weather Stations Pressure Air Temp Water Temp Dewpoint Dewpoint Depression Visibility Wind Speed Wind Dir Waves Ship Positions

Walter J Mccarthy Jr

Owner: ARMSTRONG STEAMSHIP CO, WILLIAMSVILLE, NY. More information available from US FCC via Universal Licensing System and Coast Guard Vessel Documentation Center.

Last reported at 2018-Jul-14 15:00 UTC. Time now 2018-Jul-17 05:20 UTC.
Position N 45°18' W 083°06'.

Length 304 m; draft 8.5 m.

Type: Cargo ship. MMSI: 366906610.

Wind from 240 at 6 knots

Barometer 1019.6 mb
Air temperature 20.5 ° C
Visibility: greater than 1.1 NM

Date/timePositionNaut miles runAvg speedWind from/ knotsBaromVisibWave heightAir tempDewpointWater temp
2018-Jul-14 15:00N 45°18' W 083°06'   240 / 61019.6 1.1 20.5
2018-Jul-11 03:00N 47°18' W 086°42'124 8.8 230 / 61022.6 5.4 8.3 3.8
2018-Jul-10 12:57N 46°15' W 084°06'4 8.3
2018-Jul-10 12:30N 46°11' W 084°06'510.9
2018-Jul-10 12:00N 46°08' W 084°01'5 9.8
2018-Jul-10 11:30N 46°03' W 083°58'5 9.6
2018-Jul-10 11:00N 45°59' W 083°53'612.2
2018-Jul-10 10:30N 45°54' W 083°52'612.4
2018-Jul-10 10:00N 45°49' W 083°47'612.6
2018-Jul-10 09:30N 45°44' W 083°40'612.7
2018-Jul-10 09:00N 45°40' W 083°33'612.4
2018-Jul-10 08:30N 45°36' W 083°27'612.2
2018-Jul-10 08:00N 45°32' W 083°20'912.3
2018-Jul-10 07:17N 45°26' W 083°11'612.6
2018-Jul-10 06:47N 45°22' W 083°04'1712.7
2018-Jul-10 05:28N 45°11' W 082°46'612.6
2018-Jul-10 05:00N 45°07' W 082°40'612.6
2018-Jul-10 04:30N 45°03' W 082°33'612.5
2018-Jul-10 04:00N 44°59' W 082°27'1212.1
2018-Jul-10 03:00N 44°48' W 082°18'43 1.2 280 / 121018.2 18.8 16.1
2018-Jul-08 14:00N 44°06' W 082°30'8112.0 200 / 61027.410.8 16.1 14.4
2018-Jul-08 07:14N 45°22' W 083°08'312.1
2018-Jul-08 06:57N 45°25' W 083°12'712.3
2018-Jul-08 06:22N 45°30' W 083°18'712.3
2018-Jul-08 05:46N 45°36' W 083°26'512.0
2018-Jul-08 05:22N 45°39' W 083°30'411.9
2018-Jul-08 05:00N 45°42' W 083°34'611.8
2018-Jul-08 04:28N 45°47' W 083°41'1312.1
2018-Jul-08 03:24N 45°56' W 083°53'11 9.7
2018-Jul-08 02:18N 46°06' W 084°01'9 8.6
2018-Jul-08 01:14N 46°13' W 084°09'2 6.5
2018-Jul-08 01:00N 46°14' W 084°11'75 7.4
2018-Jul-07 15:00N 47°00' W 085°36'24211.6 240 / 101026.010.8 22.7 4.4
2018-Jul-06 18:12N 47°02' W 091°30'212.3
2018-Jul-06 18:00N 47°01' W 091°34'5 8.8
2018-Jul-06 17:29N 47°01' W 091°40'0 0.0
2018-Jul-06 09:43N 47°01' W 091°40'0 0.0
2018-Jul-06 09:30N 47°01' W 091°40'0 0.0
2018-Jul-06 09:00N 47°01' W 091°40'0 0.0
2018-Jul-06 08:28N 47°01' W 091°40'0 0.0
2018-Jul-06 02:32N 47°01' W 091°40'0 0.6
2018-Jul-06 02:30N 47°01' W 091°40'2 3.0
2018-Jul-06 01:59N 46°59' W 091°41'612.1
2018-Jul-06 01:31N 46°55' W 091°47'612.6
2018-Jul-06 01:00N 46°51' W 091°54'612.6
2018-Jul-06 00:30N 46°48' W 092°01'1 2.6
2018-Jul-06 00:00N 46°47' W 092°02'0 0.0
2018-Jul-05 23:30N 46°47' W 092°02'0 0.0
2018-Jul-05 23:00N 46°47' W 092°02'0 0.0
2018-Jul-05 22:30N 46°47' W 092°02'0 0.0
2018-Jul-05 22:01N 46°47' W 092°02'0 0.1
2018-Jul-05 21:30N 46°47' W 092°02'0 0.1
2018-Jul-05 21:00N 46°47' W 092°02'0 0.1
2018-Jul-05 20:30N 46°47' W 092°02'0 0.0
2018-Jul-05 20:00N 46°47' W 092°02'0 0.0
2018-Jul-05 19:29N 46°47' W 092°02'0 0.0
2018-Jul-05 19:00N 46°47' W 092°02'0 0.0
2018-Jul-05 18:30N 46°47' W 092°02'0 0.1
2018-Jul-05 18:00N 46°47' W 092°02'0 0.1
2018-Jul-05 17:30N 46°47' W 092°02'0 0.2
2018-Jul-05 17:00N 46°47' W 092°02'0 0.2
2018-Jul-05 16:30N 46°47' W 092°02'3 6.9
2018-Jul-05 16:00N 46°49' W 091°58'612.8
2018-Jul-05 15:30N 46°53' W 091°51'613.0
2018-Jul-05 15:00N 46°56' W 091°43'  

Dump ship's entire track history